sensor_id;sensor_type;location;lat;lon;timestamp;pressure;altitude;pressure_sealevel;temperature;humidity
7075;BME280;3578;51.568;6.932;2023-02-02T00:01:47;50251.28;;;-144.14;100.00
7075;BME280;3578;51.568;6.932;2023-02-02T00:04:16;50205.22;;;-144.14;100.00
7075;BME280;3578;51.568;6.932;2023-02-02T00:06:44;50215.22;;;-144.14;100.00
7075;BME280;3578;51.568;6.932;2023-02-02T00:09:16;50265.28;;;-144.14;100.00
7075;BME280;3578;51.568;6.932;2023-02-02T00:11:45;50219.25;;;-144.14;100.00
7075;BME280;3578;51.568;6.932;2023-02-02T00:14:13;50225.25;;;-144.14;100.00
7075;BME280;3578;51.568;6.932;2023-02-02T00:16:44;50195.22;;;-144.14;100.00
7075;BME280;3578;51.568;6.932;2023-02-02T00:19:15;50207.22;;;-144.14;100.00
7075;BME280;3578;51.568;6.932;2023-02-02T00:21:43;50197.22;;;-144.14;100.00
7075;BME280;3578;51.568;6.932;2023-02-02T00:24:15;50211.22;;;-144.14;100.00
7075;BME280;3578;51.568;6.932;2023-02-02T00:26:45;50173.19;;;-144.14;100.00
7075;BME280;3578;51.568;6.932;2023-02-02T00:29:15;50185.19;;;-144.14;100.00
7075;BME280;3578;51.568;6.932;2023-02-02T00:31:43;50149.16;;;-144.14;100.00
7075;BME280;3578;51.568;6.932;2023-02-02T00:34:11;50173.19;;;-144.14;100.00
7075;BME280;3578;51.568;6.932;2023-02-02T00:36:39;50153.16;;;-144.14;100.00
7075;BME280;3578;51.568;6.932;2023-02-02T00:39:07;50143.16;;;-144.14;100.00
7075;BME280;3578;51.568;6.932;2023-02-02T00:41:36;50129.13;;;-144.14;100.00
7075;BME280;3578;51.568;6.932;2023-02-02T00:44:03;50081.09;;;-144.14;100.00
7075;BME280;3578;51.568;6.932;2023-02-02T00:46:48;50081.09;;;-144.14;100.00
7075;BME280;3578;51.568;6.932;2023-02-02T00:49:15;50025.03;;;-144.14;100.00
7075;BME280;3578;51.568;6.932;2023-02-02T00:51:42;50037.03;;;-144.14;100.00
7075;BME280;3578;51.568;6.932;2023-02-02T00:54:09;50007.00;;;-144.14;100.00
7075;BME280;3578;51.568;6.932;2023-02-02T00:56:37;50039.03;;;-144.14;100.00
7075;BME280;3578;51.568;6.932;2023-02-02T00:59:04;50071.06;;;-144.14;100.00
7075;BME280;3578;51.568;6.932;2023-02-02T01:01:32;50077.06;;;-144.14;100.00
7075;BME280;3578;51.568;6.932;2023-02-02T01:03:59;50071.06;;;-144.14;100.00
7075;BME280;3578;51.568;6.932;2023-02-02T01:06:26;50041.03;;;-144.14;100.00
7075;BME280;3578;51.568;6.932;2023-02-02T01:08:53;50057.06;;;-144.14;100.00
7075;BME280;3578;51.568;6.932;2023-02-02T01:11:20;50097.09;;;-144.14;100.00
7075;BME280;3578;51.568;6.932;2023-02-02T01:13:49;50059.06;;;-144.14;100.00
7075;BME280;3578;51.568;6.932;2023-02-02T01:16:16;50039.03;;;-144.14;100.00
7075;BME280;3578;51.568;6.932;2023-02-02T01:18:43;50091.09;;;-144.14;100.00
7075;BME280;3578;51.568;6.932;2023-02-02T01:21:11;50061.06;;;-144.14;100.00
7075;BME280;3578;51.568;6.932;2023-02-02T01:23:39;50073.06;;;-144.14;100.00
7075;BME280;3578;51.568;6.932;2023-02-02T01:26:08;50093.09;;;-144.14;100.00
7075;BME280;3578;51.568;6.932;2023-02-02T01:28:36;50065.06;;;-144.14;100.00
7075;BME280;3578;51.568;6.932;2023-02-02T01:31:10;50101.09;;;-144.14;100.00
7075;BME280;3578;51.568;6.932;2023-02-02T01:33:38;50071.06;;;-144.14;100.00
7075;BME280;3578;51.568;6.932;2023-02-02T01:36:09;50029.03;;;-144.14;100.00
7075;BME280;3578;51.568;6.932;2023-02-02T01:38:36;50033.03;;;-144.14;100.00
7075;BME280;3578;51.568;6.932;2023-02-02T01:41:04;50041.03;;;-144.14;100.00
7075;BME280;3578;51.568;6.932;2023-02-02T01:43:51;50015.00;;;-144.14;100.00
7075;BME280;3578;51.568;6.932;2023-02-02T01:46:23;50037.03;;;-144.14;100.00
7075;BME280;3578;51.568;6.932;2023-02-02T01:48:57;50013.00;;;-144.14;100.00
7075;BME280;3578;51.568;6.932;2023-02-02T01:51:35;49976.97;;;-144.14;100.00
7075;BME280;3578;51.568;6.932;2023-02-02T01:54:15;49990.97;;;-144.14;100.00
7075;BME280;3578;51.568;6.932;2023-02-02T01:56:49;50017.00;;;-144.14;100.00
7075;BME280;3578;51.568;6.932;2023-02-02T01:59:17;49980.97;;;-144.14;100.00
7075;BME280;3578;51.568;6.932;2023-02-02T02:01:47;49999.00;;;-144.14;100.00
7075;BME280;3578;51.568;6.932;2023-02-02T02:04:14;49986.97;;;-144.14;100.00
7075;BME280;3578;51.568;6.932;2023-02-02T02:06:42;50001.00;;;-144.14;100.00
7075;BME280;3578;51.568;6.932;2023-02-02T02:09:10;49978.97;;;-144.14;100.00
7075;BME280;3578;51.568;6.932;2023-02-02T02:11:37;49997.00;;;-144.14;100.00
7075;BME280;3578;51.568;6.932;2023-02-02T02:14:06;49968.97;;;-144.14;100.00
7075;BME280;3578;51.568;6.932;2023-02-02T02:17:09;49936.91;;;-144.14;100.00
7075;BME280;3578;51.568;6.932;2023-02-02T02:20:33;49834.81;;;-144.14;100.00
7075;BME280;3578;51.568;6.932;2023-02-02T02:23:55;49804.78;;;-144.14;100.00
7075;BME280;3578;51.568;6.932;2023-02-02T02:30:18;49816.78;;;-144.14;100.00
7075;BME280;3578;51.568;6.932;2023-02-02T02:32:54;49834.81;;;-144.14;100.00
7075;BME280;3578;51.568;6.932;2023-02-02T02:35:32;49776.75;;;-144.14;100.00
7075;BME280;3578;51.568;6.932;2023-02-02T02:38:06;49808.78;;;-144.14;100.00
7075;BME280;3578;51.568;6.932;2023-02-02T02:40:39;49788.78;;;-144.14;100.00
7075;BME280;3578;51.568;6.932;2023-02-02T02:43:20;49814.78;;;-144.14;100.00
7075;BME280;3578;51.568;6.932;2023-02-02T02:45:49;49852.84;;;-144.14;100.00
7075;BME280;3578;51.568;6.932;2023-02-02T02:48:18;49824.81;;;-144.14;100.00
7075;BME280;3578;51.568;6.932;2023-02-02T02:50:45;49808.78;;;-144.14;100.00
7075;BME280;3578;51.568;6.932;2023-02-02T02:53:14;49792.78;;;-144.14;100.00
7075;BME280;3578;51.568;6.932;2023-02-02T02:56:04;49800.78;;;-144.14;100.00
7075;BME280;3578;51.568;6.932;2023-02-02T02:58:40;49794.78;;;-144.14;100.00
7075;BME280;3578;51.568;6.932;2023-02-02T03:01:13;49768.75;;;-144.14;100.00
7075;BME280;3578;51.568;6.932;2023-02-02T03:03:57;49772.75;;;-144.14;100.00
7075;BME280;3578;51.568;6.932;2023-02-02T03:06:32;49780.75;;;-144.14;100.00
7075;BME280;3578;51.568;6.932;2023-02-02T03:09:06;49786.78;;;-144.14;100.00
7075;BME280;3578;51.568;6.932;2023-02-02T03:11:35;49790.78;;;-144.14;100.00
7075;BME280;3578;51.568;6.932;2023-02-02T03:14:02;49836.81;;;-144.14;100.00
7075;BME280;3578;51.568;6.932;2023-02-02T03:16:29;49848.84;;;-144.14;100.00
7075;BME280;3578;51.568;6.932;2023-02-02T03:18:57;49784.75;;;-144.14;100.00
7075;BME280;3578;51.568;6.932;2023-02-02T03:21:24;49826.81;;;-144.14;100.00
7075;BME280;3578;51.568;6.932;2023-02-02T03:23:51;49844.81;;;-144.14;100.00
7075;BME280;3578;51.568;6.932;2023-02-02T03:26:18;49852.84;;;-144.14;100.00
7075;BME280;3578;51.568;6.932;2023-02-02T03:28:46;49812.78;;;-144.14;100.00
7075;BME280;3578;51.568;6.932;2023-02-02T03:31:13;49830.81;;;-144.14;100.00
7075;BME280;3578;51.568;6.932;2023-02-02T03:33:40;49834.81;;;-144.14;100.00
7075;BME280;3578;51.568;6.932;2023-02-02T03:36:09;49794.78;;;-144.14;100.00
7075;BME280;3578;51.568;6.932;2023-02-02T03:38:36;49844.81;;;-144.14;100.00
7075;BME280;3578;51.568;6.932;2023-02-02T03:41:04;49718.69;;;-144.14;100.00
7075;BME280;3578;51.568;6.932;2023-02-02T03:43:31;49666.66;;;-144.14;100.00
7075;BME280;3578;51.568;6.932;2023-02-02T03:46:00;49722.69;;;-144.14;100.00
7075;BME280;3578;51.568;6.932;2023-02-02T03:48:29;49692.66;;;-144.14;100.00
7075;BME280;3578;51.568;6.932;2023-02-02T03:50:56;49682.66;;;-144.14;100.00
7075;BME280;3578;51.568;6.932;2023-02-02T03:53:24;49662.66;;;-144.14;100.00
7075;BME280;3578;51.568;6.932;2023-02-02T03:55:51;49636.63;;;-144.14;100.00
7075;BME280;3578;51.568;6.932;2023-02-02T03:58:19;49620.59;;;-144.14;100.00
7075;BME280;3578;51.568;6.932;2023-02-02T04:00:47;49564.53;;;-144.14;100.00
7075;BME280;3578;51.568;6.932;2023-02-02T04:03:14;49514.50;;;-144.14;100.00
7075;BME280;3578;51.568;6.932;2023-02-02T04:05:41;49498.47;;;-144.14;100.00
7075;BME280;3578;51.568;6.932;2023-02-02T04:08:08;49508.50;;;-144.14;100.00
7075;BME280;3578;51.568;6.932;2023-02-02T04:10:36;49552.53;;;-144.14;100.00
7075;BME280;3578;51.568;6.932;2023-02-02T04:13:07;49526.50;;;-144.14;100.00
7075;BME280;3578;51.568;6.932;2023-02-02T04:15:34;49480.47;;;-144.14;100.00
7075;BME280;3578;51.568;6.932;2023-02-02T04:18:01;49340.34;;;-144.14;100.00
7075;BME280;3578;51.568;6.932;2023-02-02T04:20:28;49334.34;;;-144.14;100.00
7075;BME280;3578;51.568;6.932;2023-02-02T04:22:55;49330.34;;;-144.14;100.00
7075;BME280;3578;51.568;6.932;2023-02-02T04:25:21;49372.38;;;-144.14;100.00
7075;BME280;3578;51.568;6.932;2023-02-02T04:27:50;49374.38;;;-144.14;100.00
7075;BME280;3578;51.568;6.932;2023-02-02T04:30:17;49378.38;;;-144.14;100.00
7075;BME280;3578;51.568;6.932;2023-02-02T04:32:45;49364.38;;;-144.14;100.00
7075;BME280;3578;51.568;6.932;2023-02-02T04:35:12;49372.38;;;-144.14;100.00
7075;BME280;3578;51.568;6.932;2023-02-02T04:37:39;49396.38;;;-144.14;100.00
7075;BME280;3578;51.568;6.932;2023-02-02T04:40:09;49332.34;;;-144.14;100.00
7075;BME280;3578;51.568;6.932;2023-02-02T04:42:36;49332.34;;;-144.14;100.00
7075;BME280;3578;51.568;6.932;2023-02-02T04:45:06;49358.34;;;-144.14;100.00
7075;BME280;3578;51.568;6.932;2023-02-02T04:47:33;49364.38;;;-144.14;100.00
7075;BME280;3578;51.568;6.932;2023-02-02T04:50:01;49390.38;;;-144.14;100.00
7075;BME280;3578;51.568;6.932;2023-02-02T04:52:28;49380.38;;;-144.14;100.00
7075;BME280;3578;51.568;6.932;2023-02-02T04:54:55;49388.38;;;-144.14;100.00
7075;BME280;3578;51.568;6.932;2023-02-02T04:57:22;49384.38;;;-144.14;100.00
7075;BME280;3578;51.568;6.932;2023-02-02T04:59:49;49372.38;;;-144.14;100.00
7075;BME280;3578;51.568;6.932;2023-02-02T05:02:18;49372.38;;;-144.14;100.00
7075;BME280;3578;51.568;6.932;2023-02-02T05:04:45;49360.34;;;-144.14;100.00
7075;BME280;3578;51.568;6.932;2023-02-02T05:07:12;49376.38;;;-144.14;100.00
7075;BME280;3578;51.568;6.932;2023-02-02T05:09:39;49360.34;;;-144.14;100.00
7075;BME280;3578;51.568;6.932;2023-02-02T05:12:06;49338.34;;;-144.14;100.00
7075;BME280;3578;51.568;6.932;2023-02-02T05:14:33;49334.34;;;-144.14;100.00
7075;BME280;3578;51.568;6.932;2023-02-02T05:17:00;49360.34;;;-144.14;100.00
7075;BME280;3578;51.568;6.932;2023-02-02T05:19:28;49348.34;;;-144.14;100.00
7075;BME280;3578;51.568;6.932;2023-02-02T05:21:55;49340.34;;;-144.14;100.00
7075;BME280;3578;51.568;6.932;2023-02-02T05:24:22;49320.31;;;-144.14;100.00
7075;BME280;3578;51.568;6.932;2023-02-02T05:26:49;49376.38;;;-144.14;100.00
7075;BME280;3578;51.568;6.932;2023-02-02T05:29:17;49384.38;;;-144.14;100.00
7075;BME280;3578;51.568;6.932;2023-02-02T05:31:44;49342.34;;;-144.14;100.00
7075;BME280;3578;51.568;6.932;2023-02-02T05:34:11;49354.34;;;-144.14;100.00
7075;BME280;3578;51.568;6.932;2023-02-02T05:36:40;49360.34;;;-144.14;100.00
7075;BME280;3578;51.568;6.932;2023-02-02T05:39:08;49344.34;;;-144.14;100.00
7075;BME280;3578;51.568;6.932;2023-02-02T05:41:35;49352.34;;;-144.14;100.00
7075;BME280;3578;51.568;6.932;2023-02-02T05:44:03;49360.34;;;-144.14;100.00
7075;BME280;3578;51.568;6.932;2023-02-02T05:46:30;49338.34;;;-144.14;100.00
7075;BME280;3578;51.568;6.932;2023-02-02T05:48:57;49336.34;;;-144.14;100.00
7075;BME280;3578;51.568;6.932;2023-02-02T05:51:27;49328.34;;;-144.14;100.00
7075;BME280;3578;51.568;6.932;2023-02-02T05:53:56;49344.34;;;-144.14;100.00
7075;BME280;3578;51.568;6.932;2023-02-02T05:56:23;49322.31;;;-144.14;100.00
7075;BME280;3578;51.568;6.932;2023-02-02T05:58:50;49316.31;;;-144.14;100.00
7075;BME280;3578;51.568;6.932;2023-02-02T06:01:18;49350.34;;;-144.14;100.00
7075;BME280;3578;51.568;6.932;2023-02-02T06:03:46;49328.34;;;-144.14;100.00
7075;BME280;3578;51.568;6.932;2023-02-02T06:06:13;49350.34;;;-144.14;100.00
7075;BME280;3578;51.568;6.932;2023-02-02T06:08:40;49344.34;;;-144.14;100.00
7075;BME280;3578;51.568;6.932;2023-02-02T06:11:09;49352.34;;;-144.14;100.00
7075;BME280;3578;51.568;6.932;2023-02-02T06:13:37;49358.34;;;-144.14;100.00
7075;BME280;3578;51.568;6.932;2023-02-02T06:16:05;49368.38;;;-144.14;100.00
7075;BME280;3578;51.568;6.932;2023-02-02T06:18:32;49386.38;;;-144.14;100.00
7075;BME280;3578;51.568;6.932;2023-02-02T06:21:01;49358.34;;;-144.14;100.00
7075;BME280;3578;51.568;6.932;2023-02-02T06:23:29;49358.34;;;-144.14;100.00
7075;BME280;3578;51.568;6.932;2023-02-02T06:25:56;49392.38;;;-144.14;100.00
7075;BME280;3578;51.568;6.932;2023-02-02T06:28:24;49360.34;;;-144.14;100.00
7075;BME280;3578;51.568;6.932;2023-02-02T06:30:51;49372.38;;;-144.14;100.00
7075;BME280;3578;51.568;6.932;2023-02-02T06:33:18;49392.38;;;-144.14;100.00
7075;BME280;3578;51.568;6.932;2023-02-02T06:35:45;49412.41;;;-144.14;100.00
7075;BME280;3578;51.568;6.932;2023-02-02T06:38:12;49396.38;;;-144.14;100.00
7075;BME280;3578;51.568;6.932;2023-02-02T06:40:39;49374.38;;;-144.14;100.00
7075;BME280;3578;51.568;6.932;2023-02-02T06:43:06;49378.38;;;-144.14;100.00
7075;BME280;3578;51.568;6.932;2023-02-02T06:45:35;49420.41;;;-144.14;100.00
7075;BME280;3578;51.568;6.932;2023-02-02T06:48:05;49426.41;;;-144.14;100.00
7075;BME280;3578;51.568;6.932;2023-02-02T06:50:35;49444.44;;;-144.14;100.00
7075;BME280;3578;51.568;6.932;2023-02-02T06:53:03;49454.44;;;-144.14;100.00
7075;BME280;3578;51.568;6.932;2023-02-02T06:55:30;49440.44;;;-144.14;100.00
7075;BME280;3578;51.568;6.932;2023-02-02T06:57:57;49432.44;;;-144.14;100.00
7075;BME280;3578;51.568;6.932;2023-02-02T07:00:25;49388.38;;;-144.14;100.00
7075;BME280;3578;51.568;6.932;2023-02-02T07:02:55;49468.47;;;-144.14;100.00
7075;BME280;3578;51.568;6.932;2023-02-02T07:05:22;49456.44;;;-144.14;100.00
7075;BME280;3578;51.568;6.932;2023-02-02T07:07:49;49428.41;;;-144.14;100.00
7075;BME280;3578;51.568;6.932;2023-02-02T07:10:17;49470.47;;;-144.14;100.00
7075;BME280;3578;51.568;6.932;2023-02-02T07:12:44;49456.44;;;-144.14;100.00
7075;BME280;3578;51.568;6.932;2023-02-02T07:15:11;49428.41;;;-144.14;100.00
7075;BME280;3578;51.568;6.932;2023-02-02T07:17:38;49424.41;;;-144.14;100.00
7075;BME280;3578;51.568;6.932;2023-02-02T07:20:09;49456.44;;;-144.14;100.00
7075;BME280;3578;51.568;6.932;2023-02-02T07:22:37;49432.44;;;-144.14;100.00
7075;BME280;3578;51.568;6.932;2023-02-02T07:25:06;49434.44;;;-144.14;100.00
7075;BME280;3578;51.568;6.932;2023-02-02T07:27:33;49456.44;;;-144.14;100.00
7075;BME280;3578;51.568;6.932;2023-02-02T07:30:00;49448.44;;;-144.14;100.00
7075;BME280;3578;51.568;6.932;2023-02-02T07:32:27;49444.44;;;-144.14;100.00
7075;BME280;3578;51.568;6.932;2023-02-02T07:34:54;49468.47;;;-144.14;100.00
7075;BME280;3578;51.568;6.932;2023-02-02T07:37:22;49436.44;;;-144.14;100.00
7075;BME280;3578;51.568;6.932;2023-02-02T07:39:49;49444.44;;;-144.14;100.00
7075;BME280;3578;51.568;6.932;2023-02-02T07:42:16;49472.47;;;-144.14;100.00
7075;BME280;3578;51.568;6.932;2023-02-02T07:44:43;49436.44;;;-144.14;100.00
7075;BME280;3578;51.568;6.932;2023-02-02T07:47:10;49448.44;;;-144.14;100.00
7075;BME280;3578;51.568;6.932;2023-02-02T07:49:37;49438.44;;;-144.14;100.00
7075;BME280;3578;51.568;6.932;2023-02-02T07:52:04;49444.44;;;-144.14;100.00
7075;BME280;3578;51.568;6.932;2023-02-02T07:54:33;49458.44;;;-144.14;100.00
7075;BME280;3578;51.568;6.932;2023-02-02T07:56:59;49428.41;;;-144.14;100.00
7075;BME280;3578;51.568;6.932;2023-02-02T07:59:26;49446.44;;;-144.14;100.00
7075;BME280;3578;51.568;6.932;2023-02-02T08:01:53;49430.41;;;-144.14;100.00
7075;BME280;3578;51.568;6.932;2023-02-02T08:04:20;49412.41;;;-144.14;100.00
7075;BME280;3578;51.568;6.932;2023-02-02T08:06:47;49408.41;;;-144.14;100.00
7075;BME280;3578;51.568;6.932;2023-02-02T08:09:14;49422.41;;;-144.14;100.00
7075;BME280;3578;51.568;6.932;2023-02-02T08:11:43;49394.38;;;-144.14;100.00
7075;BME280;3578;51.568;6.932;2023-02-02T08:14:11;49390.38;;;-144.14;100.00
7075;BME280;3578;51.568;6.932;2023-02-02T08:16:39;49412.41;;;-144.14;100.00
7075;BME280;3578;51.568;6.932;2023-02-02T08:19:06;49428.41;;;-144.14;100.00
7075;BME280;3578;51.568;6.932;2023-02-02T08:21:33;49388.38;;;-144.14;100.00
7075;BME280;3578;51.568;6.932;2023-02-02T08:24:01;49392.38;;;-144.14;100.00
7075;BME280;3578;51.568;6.932;2023-02-02T08:26:30;49414.41;;;-144.14;100.00
7075;BME280;3578;51.568;6.932;2023-02-02T08:29:01;49366.38;;;-144.14;100.00
7075;BME280;3578;51.568;6.932;2023-02-02T08:31:30;49342.34;;;-144.14;100.00
7075;BME280;3578;51.568;6.932;2023-02-02T08:33:58;49336.34;;;-144.14;100.00
7075;BME280;3578;51.568;6.932;2023-02-02T08:36:28;49352.34;;;-144.14;100.00
7075;BME280;3578;51.568;6.932;2023-02-02T08:38:59;49376.38;;;-144.14;100.00
7075;BME280;3578;51.568;6.932;2023-02-02T08:41:26;49378.38;;;-144.14;100.00
7075;BME280;3578;51.568;6.932;2023-02-02T08:43:54;49348.34;;;-144.14;100.00
7075;BME280;3578;51.568;6.932;2023-02-02T08:46:22;49364.38;;;-144.14;100.00
7075;BME280;3578;51.568;6.932;2023-02-02T08:48:49;49336.34;;;-144.14;100.00
7075;BME280;3578;51.568;6.932;2023-02-02T08:51:18;49380.38;;;-144.14;100.00
7075;BME280;3578;51.568;6.932;2023-02-02T08:53:46;49388.38;;;-144.14;100.00
7075;BME280;3578;51.568;6.932;2023-02-02T08:56:18;49344.34;;;-144.14;100.00
7075;BME280;3578;51.568;6.932;2023-02-02T08:58:49;49344.34;;;-144.14;100.00
7075;BME280;3578;51.568;6.932;2023-02-02T09:01:26;49266.28;;;-144.14;100.00
7075;BME280;3578;51.568;6.932;2023-02-02T09:03:58;49256.28;;;-144.14;100.00
7075;BME280;3578;51.568;6.932;2023-02-02T09:06:31;49276.28;;;-144.14;100.00
7075;BME280;3578;51.568;6.932;2023-02-02T09:08:59;49244.25;;;-144.14;100.00
7075;BME280;3578;51.568;6.932;2023-02-02T09:11:26;49194.22;;;-144.14;100.00
7075;BME280;3578;51.568;6.932;2023-02-02T09:13:56;49258.28;;;-144.14;100.00
7075;BME280;3578;51.568;6.932;2023-02-02T09:16:26;49228.25;;;-144.14;100.00
7075;BME280;3578;51.568;6.932;2023-02-02T09:18:54;49212.22;;;-144.14;100.00
7075;BME280;3578;51.568;6.932;2023-02-02T09:21:22;49196.22;;;-144.14;100.00
7075;BME280;3578;51.568;6.932;2023-02-02T09:23:50;49230.25;;;-144.14;100.00
7075;BME280;3578;51.568;6.932;2023-02-02T09:26:21;49256.28;;;-144.14;100.00
7075;BME280;3578;51.568;6.932;2023-02-02T09:28:52;49242.25;;;-144.14;100.00
7075;BME280;3578;51.568;6.932;2023-02-02T09:31:20;49260.28;;;-144.14;100.00
7075;BME280;3578;51.568;6.932;2023-02-02T09:33:48;49240.25;;;-144.14;100.00
7075;BME280;3578;51.568;6.932;2023-02-02T09:36:17;49272.28;;;-144.14;100.00
7075;BME280;3578;51.568;6.932;2023-02-02T09:38:47;49276.28;;;-144.14;100.00
7075;BME280;3578;51.568;6.932;2023-02-02T09:41:52;49346.34;;;-144.14;100.00
7075;BME280;3578;51.568;6.932;2023-02-02T09:44:38;49300.31;;;-144.14;100.00
7075;BME280;3578;51.568;6.932;2023-02-02T09:47:16;49302.31;;;-144.14;100.00
7075;BME280;3578;51.568;6.932;2023-02-02T09:49:55;49296.31;;;-144.14;100.00
7075;BME280;3578;51.568;6.932;2023-02-02T09:52:28;49294.31;;;-144.14;100.00
7075;BME280;3578;51.568;6.932;2023-02-02T09:54:59;49252.25;;;-144.14;100.00
7075;BME280;3578;51.568;6.932;2023-02-02T09:57:34;49250.25;;;-144.14;100.00
7075;BME280;3578;51.568;6.932;2023-02-02T10:00:05;49256.28;;;-144.14;100.00
7075;BME280;3578;51.568;6.932;2023-02-02T10:02:43;49264.28;;;-144.14;100.00
7075;BME280;3578;51.568;6.932;2023-02-02T10:05:21;49230.25;;;-144.14;100.00
7075;BME280;3578;51.568;6.932;2023-02-02T10:07:55;49264.28;;;-144.14;100.00
7075;BME280;3578;51.568;6.932;2023-02-02T10:10:28;49250.25;;;-144.14;100.00
7075;BME280;3578;51.568;6.932;2023-02-02T10:13:03;49230.25;;;-144.14;100.00
7075;BME280;3578;51.568;6.932;2023-02-02T10:15:36;49242.25;;;-144.14;100.00
7075;BME280;3578;51.568;6.932;2023-02-02T10:18:12;49262.28;;;-144.14;100.00
7075;BME280;3578;51.568;6.932;2023-02-02T10:20:49;49252.25;;;-144.14;100.00
7075;BME280;3578;51.568;6.932;2023-02-02T10:23:25;49254.25;;;-144.14;100.00
7075;BME280;3578;51.568;6.932;2023-02-02T10:26:00;49248.25;;;-144.14;100.00
7075;BME280;3578;51.568;6.932;2023-02-02T10:28:43;49252.25;;;-144.14;100.00
7075;BME280;3578;51.568;6.932;2023-02-02T10:31:32;49254.25;;;-144.14;100.00
7075;BME280;3578;51.568;6.932;2023-02-02T10:34:13;49238.25;;;-144.14;100.00
7075;BME280;3578;51.568;6.932;2023-02-02T10:37:04;49188.22;;;-144.14;100.00
7075;BME280;3578;51.568;6.932;2023-02-02T10:39:45;49232.25;;;-144.14;100.00
7075;BME280;3578;51.568;6.932;2023-02-02T10:42:27;49200.22;;;-144.14;100.00
7075;BME280;3578;51.568;6.932;2023-02-02T10:45:00;49222.25;;;-144.14;100.00
7075;BME280;3578;51.568;6.932;2023-02-02T10:47:31;49212.22;;;-144.14;100.00
7075;BME280;3578;51.568;6.932;2023-02-02T10:50:14;49240.25;;;-144.14;100.00
7075;BME280;3578;51.568;6.932;2023-02-02T10:52:46;49148.19;;;-144.14;100.00
7075;BME280;3578;51.568;6.932;2023-02-02T10:55:24;49224.25;;;-144.14;100.00
7075;BME280;3578;51.568;6.932;2023-02-02T10:58:04;49208.22;;;-144.14;100.00
7075;BME280;3578;51.568;6.932;2023-02-02T11:00:37;49216.22;;;-144.14;100.00
7075;BME280;3578;51.568;6.932;2023-02-02T11:03:09;49238.25;;;-144.14;100.00
7075;BME280;3578;51.568;6.932;2023-02-02T11:05:37;49248.25;;;-144.14;100.00
7075;BME280;3578;51.568;6.932;2023-02-02T11:08:29;49270.28;;;-144.14;100.00
7075;BME280;3578;51.568;6.932;2023-02-02T11:11:08;49242.25;;;-144.14;100.00
7075;BME280;3578;51.568;6.932;2023-02-02T11:13:40;49302.31;;;-144.14;100.00
7075;BME280;3578;51.568;6.932;2023-02-02T11:16:27;49316.31;;;-144.14;100.00
7075;BME280;3578;51.568;6.932;2023-02-02T11:18:54;49332.34;;;-144.14;100.00
7075;BME280;3578;51.568;6.932;2023-02-02T11:21:25;49290.28;;;-144.14;100.00
7075;BME280;3578;51.568;6.932;2023-02-02T11:23:58;49326.31;;;-144.14;100.00
7075;BME280;3578;51.568;6.932;2023-02-02T11:26:40;49360.34;;;-144.14;100.00
7075;BME280;3578;51.568;6.932;2023-02-02T11:29:13;49402.41;;;-144.14;100.00
7075;BME280;3578;51.568;6.932;2023-02-02T11:31:41;49384.38;;;-144.14;100.00
7075;BME280;3578;51.568;6.932;2023-02-02T11:34:18;49426.41;;;-144.14;100.00
7075;BME280;3578;51.568;6.932;2023-02-02T11:37:11;49438.44;;;-144.14;100.00
7075;BME280;3578;51.568;6.932;2023-02-02T11:39:40;49452.44;;;-144.14;100.00
7075;BME280;3578;51.568;6.932;2023-02-02T11:42:13;49488.47;;;-144.14;100.00
7075;BME280;3578;51.568;6.932;2023-02-02T11:44:45;49510.50;;;-144.14;100.00
7075;BME280;3578;51.568;6.932;2023-02-02T11:47:20;49552.53;;;-144.14;100.00
7075;BME280;3578;51.568;6.932;2023-02-02T11:49:50;49602.59;;;-144.14;100.00
7075;BME280;3578;51.568;6.932;2023-02-02T11:52:20;49630.63;;;-144.14;100.00
7075;BME280;3578;51.568;6.932;2023-02-02T11:54:52;49646.63;;;-144.14;100.00
7075;BME280;3578;51.568;6.932;2023-02-02T11:57:22;49706.69;;;-144.14;100.00
7075;BME280;3578;51.568;6.932;2023-02-02T12:00:04;49700.69;;;-144.14;100.00
7075;BME280;3578;51.568;6.932;2023-02-02T12:02:32;49698.69;;;-144.14;100.00
7075;BME280;3578;51.568;6.932;2023-02-02T12:05:34;49780.75;;;-144.14;100.00
7075;BME280;3578;51.568;6.932;2023-02-02T12:08:02;49794.78;;;-144.14;100.00
7075;BME280;3578;51.568;6.932;2023-02-02T12:10:39;49800.78;;;-144.14;100.00
7075;BME280;3578;51.568;6.932;2023-02-02T12:13:14;49800.78;;;-144.14;100.00
7075;BME280;3578;51.568;6.932;2023-02-02T12:15:52;49770.75;;;-144.14;100.00
7075;BME280;3578;51.568;6.932;2023-02-02T12:18:39;49760.75;;;-144.14;100.00
7075;BME280;3578;51.568;6.932;2023-02-02T12:21:14;49732.72;;;-144.14;100.00
7075;BME280;3578;51.568;6.932;2023-02-02T12:23:56;49758.75;;;-144.14;100.00
7075;BME280;3578;51.568;6.932;2023-02-02T12:26:31;49760.75;;;-144.14;100.00
7075;BME280;3578;51.568;6.932;2023-02-02T12:29:36;49890.88;;;-144.14;100.00
7075;BME280;3578;51.568;6.932;2023-02-02T12:32:26;49908.91;;;-144.14;100.00
7075;BME280;3578;51.568;6.932;2023-02-02T12:35:18;49912.91;;;-144.14;100.00
7075;BME280;3578;51.568;6.932;2023-02-02T12:37:59;49988.97;;;-144.14;100.00
7075;BME280;3578;51.568;6.932;2023-02-02T12:40:47;49864.84;;;-144.14;100.00
7075;BME280;3578;51.568;6.932;2023-02-02T12:43:35;49848.84;;;-144.14;100.00
7075;BME280;3578;51.568;6.932;2023-02-02T12:46:20;49900.88;;;-144.14;100.00
7075;BME280;3578;51.568;6.932;2023-02-02T12:49:34;49910.91;;;-144.14;100.00
7075;BME280;3578;51.568;6.932;2023-02-02T12:52:24;49928.91;;;-144.14;100.00
7075;BME280;3578;51.568;6.932;2023-02-02T12:55:16;49910.91;;;-144.14;100.00
7075;BME280;3578;51.568;6.932;2023-02-02T12:57:55;49882.88;;;-144.14;100.00
7075;BME280;3578;51.568;6.932;2023-02-02T13:00:48;49896.88;;;-144.14;100.00
7075;BME280;3578;51.568;6.932;2023-02-02T13:03:30;49960.94;;;-144.14;100.00
7075;BME280;3578;51.568;6.932;2023-02-02T13:09:27;49906.88;;;-144.14;100.00
7075;BME280;3578;51.568;6.932;2023-02-02T13:12:01;49884.88;;;-144.14;100.00
7075;BME280;3578;51.568;6.932;2023-02-02T13:14:34;49812.78;;;-144.14;100.00
7075;BME280;3578;51.568;6.932;2023-02-02T13:17:10;49820.81;;;-144.14;100.00
7075;BME280;3578;51.568;6.932;2023-02-02T13:19:41;49806.78;;;-144.14;100.00
7075;BME280;3578;51.568;6.932;2023-02-02T13:22:15;49760.75;;;-144.14;100.00